createdAt,value
2018-08-24T00:00:20.098Z,50.08
2018-08-24T00:02:49.073Z,50.06
2018-08-24T00:05:18.035Z,50.16
2018-08-24T00:07:46.999Z,49.78
2018-08-24T00:10:16.112Z,50.71
2018-08-24T00:12:45.150Z,50.47
2018-08-24T00:15:14.156Z,50.60
2018-08-24T00:17:47.355Z,49.98
2018-08-24T00:20:19.257Z,49.72
2018-08-24T00:22:48.267Z,49.73
2018-08-24T00:25:17.361Z,50.17
2018-08-24T00:27:46.316Z,48.99
2018-08-24T00:30:15.415Z,49.58
2018-08-24T00:32:44.436Z,50.22
2018-08-24T00:35:13.439Z,49.73
2018-08-24T00:37:42.347Z,48.52
2018-08-24T00:40:11.281Z,49.51
2018-08-24T00:42:40.358Z,50.19
2018-08-24T00:45:09.391Z,50.02
2018-08-24T00:47:38.414Z,50.56
2018-08-24T00:50:07.500Z,50.84
2018-08-24T00:52:36.406Z,50.26
2018-08-24T00:55:05.516Z,49.95
2018-08-24T00:57:34.543Z,49.69
2018-08-24T01:00:03.519Z,49.60
2018-08-24T01:02:32.521Z,49.23
2018-08-24T01:05:01.449Z,49.13
2018-08-24T01:07:33.194Z,50.30
2018-08-24T01:10:06.207Z,49.41
2018-08-24T01:12:35.281Z,49.33
2018-08-24T01:15:07.668Z,50.27
2018-08-24T01:17:41.650Z,50.03
2018-08-24T01:20:10.620Z,50.21
2018-08-24T01:22:39.612Z,50.29
2018-08-24T01:25:08.573Z,49.68
2018-08-24T01:27:37.510Z,50.57
2018-08-24T01:30:06.936Z,49.91
2018-08-24T01:32:35.880Z,50.34
2018-08-24T01:35:04.891Z,50.47
2018-08-24T01:37:33.878Z,48.69
2018-08-24T01:40:02.902Z,49.28
2018-08-24T01:42:31.837Z,49.03
2018-08-24T01:45:00.800Z,48.82
2018-08-24T01:47:29.861Z,48.48
2018-08-24T01:49:58.956Z,49.17
2018-08-24T01:52:27.931Z,49.19
2018-08-24T01:54:57.007Z,48.13
2018-08-24T01:57:25.940Z,49.12
2018-08-24T01:59:54.868Z,48.12
2018-08-24T02:02:23.826Z,48.25
2018-08-24T02:04:52.945Z,49.42
2018-08-24T02:07:21.948Z,49.52
2018-08-24T02:09:50.944Z,49.59
2018-08-24T02:12:24.950Z,49.28
2018-08-24T02:14:53.888Z,49.08
2018-08-24T02:17:27.892Z,49.29
2018-08-24T02:20:01.893Z,49.35
2018-08-24T02:22:30.972Z,48.87
2018-08-24T02:25:00.027Z,49.78
2018-08-24T02:27:29.092Z,49.62
2018-08-24T02:29:58.560Z,49.77
2018-08-24T02:32:27.601Z,50.32
2018-08-24T02:34:59.165Z,49.29
2018-08-24T02:37:29.963Z,49.89
2018-08-24T02:39:58.916Z,49.70
2018-08-24T02:42:27.892Z,50.23
2018-08-24T02:44:56.865Z,50.72
2018-08-24T02:47:25.906Z,50.48
2018-08-24T02:49:54.921Z,50.56
2018-08-24T02:52:23.944Z,49.74
2018-08-24T02:54:52.981Z,50.65
2018-08-24T02:57:21.974Z,50.09
2018-08-24T02:59:51.021Z,51.19
2018-08-24T03:02:20.086Z,50.99
2018-08-24T03:04:52.148Z,49.88
2018-08-24T03:07:21.210Z,51.39
2018-08-24T03:09:51.052Z,50.23
2018-08-24T03:12:20.136Z,50.64
2018-08-24T03:14:49.263Z,49.82
2018-08-24T03:17:23.432Z,50.48
2018-08-24T03:19:52.509Z,50.04
2018-08-24T03:22:21.459Z,50.93
2018-08-24T03:24:50.401Z,50.15
2018-08-24T03:27:19.300Z,50.94
2018-08-24T03:29:48.284Z,50.74
2018-08-24T03:32:17.216Z,49.99
2018-08-24T03:34:46.212Z,50.82
2018-08-24T03:37:15.260Z,50.96
2018-08-24T03:39:44.416Z,51.24
2018-08-24T03:42:13.440Z,51.32
2018-08-24T03:44:42.362Z,50.02
2018-08-24T03:47:11.319Z,50.90
2018-08-24T03:49:40.426Z,50.68
2018-08-24T03:52:09.473Z,50.99
2018-08-24T03:54:38.493Z,50.74
2018-08-24T03:57:07.616Z,50.82
2018-08-24T03:59:36.575Z,49.42
2018-08-24T04:02:09.252Z,49.52
2018-08-24T04:04:38.220Z,48.67
2018-08-24T04:07:07.215Z,48.67
2018-08-24T04:09:36.318Z,49.46
2018-08-24T04:12:05.345Z,49.21
2018-08-24T04:14:34.351Z,49.90
2018-08-24T04:17:08.584Z,49.17
2018-08-24T04:19:37.668Z,48.74
2018-08-24T04:22:06.870Z,49.27
2018-08-24T04:24:36.109Z,48.66
2018-08-24T04:27:05.097Z,49.90
2018-08-24T04:29:34.213Z,50.06
2018-08-24T04:32:04.232Z,49.55
2018-08-24T04:34:33.208Z,49.24
2018-08-24T04:37:02.336Z,48.96
2018-08-24T04:39:31.321Z,48.33
2018-08-24T04:42:00.352Z,49.22
2018-08-24T04:44:29.288Z,48.50
2018-08-24T04:46:58.251Z,48.28
2018-08-24T04:49:27.284Z,48.40
2018-08-24T04:51:56.275Z,48.57
2018-08-24T04:54:25.257Z,48.87
2018-08-24T04:56:54.327Z,49.22
2018-08-24T04:59:23.344Z,48.83
2018-08-24T05:01:52.494Z,49.14
2018-08-24T05:04:21.439Z,48.98
2018-08-24T05:06:59.769Z,49.45
2018-08-24T05:09:28.747Z,49.55
2018-08-24T05:11:57.660Z,50.94
2018-08-24T05:14:26.563Z,50.91
2018-08-24T05:16:55.591Z,50.44
2018-08-24T05:19:24.590Z,49.44
2018-08-24T05:21:53.555Z,49.18
2018-08-24T05:24:22.481Z,49.32
2018-08-24T05:26:51.454Z,49.68
2018-08-24T05:29:20.380Z,50.14
2018-08-24T05:31:49.365Z,49.24
2018-08-24T05:34:18.403Z,48.89
2018-08-24T05:36:47.390Z,48.49
2018-08-24T05:39:16.419Z,48.38
2018-08-24T05:41:45.445Z,49.50
2018-08-24T05:44:14.367Z,48.32
2018-08-24T05:46:43.358Z,47.70
2018-08-24T05:49:12.360Z,48.41
2018-08-24T05:51:41.435Z,47.63
2018-08-24T05:54:10.399Z,47.25
2018-08-24T05:56:39.337Z,47.51
2018-08-24T05:59:08.310Z,47.65
2018-08-24T06:01:37.210Z,46.71
2018-08-24T06:04:06.265Z,47.71
2018-08-24T06:06:35.250Z,46.81
2018-08-24T06:09:09.427Z,46.48
2018-08-24T06:11:38.398Z,47.04
2018-08-24T06:14:07.351Z,46.61
2018-08-24T06:16:39.360Z,46.35
2018-08-24T06:19:09.645Z,46.18
2018-08-24T06:21:38.623Z,47.34
2018-08-24T06:24:07.696Z,46.06
2018-08-24T06:26:36.660Z,45.75
2018-08-24T06:29:05.776Z,45.61
2018-08-24T06:31:34.908Z,45.27
2018-08-24T06:34:03.876Z,46.46
2018-08-24T06:36:32.960Z,45.99
2018-08-24T06:39:01.951Z,46.43
2018-08-24T06:41:31.001Z,46.22
2018-08-24T06:44:00.027Z,45.39
2018-08-24T06:46:29.028Z,46.05
2018-08-24T06:48:58.068Z,46.21
2018-08-24T06:51:27.011Z,45.80
2018-08-24T06:53:55.985Z,46.14
2018-08-24T06:56:24.951Z,45.18
2018-08-24T06:58:53.949Z,45.54
2018-08-24T07:01:23.148Z,45.23
2018-08-24T07:03:52.163Z,45.71
2018-08-24T07:06:21.188Z,44.69
2018-08-24T07:08:50.193Z,45.20
2018-08-24T07:11:19.305Z,45.85
2018-08-24T07:13:50.179Z,45.77
2018-08-24T07:16:19.556Z,46.08
2018-08-24T07:18:48.489Z,45.72
2018-08-24T07:21:17.496Z,46.28
2018-08-24T07:23:46.688Z,45.97
2018-08-24T07:26:15.608Z,44.72
2018-08-24T07:28:44.649Z,45.78
2018-08-24T07:31:13.545Z,45.41
2018-08-24T07:33:42.526Z,45.07
2018-08-24T07:36:11.520Z,44.80
2018-08-24T07:38:40.451Z,44.86
2018-08-24T07:41:09.584Z,45.00
2018-08-24T07:43:38.556Z,45.90
2018-08-24T07:46:07.633Z,45.55
2018-08-24T07:48:36.621Z,44.74
2018-08-24T07:51:05.604Z,44.79
2018-08-24T07:53:34.750Z,44.45
2018-08-24T07:56:03.767Z,44.66
2018-08-24T07:58:32.898Z,45.64
2018-08-24T08:01:01.837Z,45.33
2018-08-24T08:03:30.773Z,44.40
2018-08-24T08:05:59.734Z,44.03
2018-08-24T08:08:28.811Z,44.83
2018-08-24T08:10:57.840Z,44.31
2018-08-24T08:13:26.726Z,44.20
2018-08-24T08:15:55.787Z,44.07
2018-08-24T08:18:24.784Z,43.94
2018-08-24T08:20:53.773Z,44.01
2018-08-24T08:23:22.786Z,43.52
2018-08-24T08:25:51.732Z,43.92
2018-08-24T08:28:20.723Z,44.39
2018-08-24T08:30:49.661Z,45.27
2018-08-24T08:33:18.619Z,45.10
2018-08-24T08:35:47.502Z,44.99
2018-08-24T08:38:16.560Z,44.81
2018-08-24T08:40:45.505Z,44.43
2018-08-24T08:43:14.469Z,44.06
2018-08-24T08:45:43.475Z,44.84
2018-08-24T08:48:12.448Z,44.21
2018-08-24T08:50:41.318Z,44.16
2018-08-24T08:53:10.351Z,44.03
2018-08-24T08:55:39.445Z,44.47
2018-08-24T08:58:08.523Z,42.63
2018-08-24T09:00:37.515Z,43.50
2018-08-24T09:03:06.734Z,43.13
2018-08-24T09:05:35.894Z,43.03
2018-08-24T09:08:04.856Z,43.31
2018-08-24T09:10:33.791Z,42.79
2018-08-24T09:13:02.897Z,42.17
2018-08-24T09:15:31.809Z,42.31
2018-08-24T09:18:05.781Z,41.39
2018-08-24T09:20:40.075Z,41.79
2018-08-24T09:23:14.291Z,40.18
2018-08-24T09:25:48.303Z,40.18
2018-08-24T09:28:23.183Z,40.80
2018-08-24T09:30:55.552Z,40.63
2018-08-24T09:33:24.617Z,40.06
2018-08-24T09:35:53.658Z,40.88
2018-08-24T09:38:22.696Z,40.33
2018-08-24T09:40:56.751Z,38.97
2018-08-24T09:43:30.775Z,40.27
2018-08-24T09:45:59.943Z,39.77
2018-08-24T09:48:31.319Z,39.74
2018-08-24T09:51:05.288Z,40.05
2018-08-24T09:53:39.351Z,39.57
2018-08-24T09:56:08.326Z,39.41
2018-08-24T09:58:37.273Z,40.26
2018-08-24T10:01:11.308Z,39.13
2018-08-24T10:03:45.436Z,39.83
2018-08-24T10:06:19.563Z,39.54
2018-08-24T10:08:49.536Z,39.07
2018-08-24T10:11:18.595Z,38.08
2018-08-24T10:13:47.677Z,39.76
2018-08-24T10:16:17.209Z,38.92
2018-08-24T10:18:46.167Z,39.24
2018-08-24T10:21:15.304Z,38.52
2018-08-24T10:23:44.304Z,39.58
2018-08-24T10:26:13.253Z,38.63
2018-08-24T10:28:42.237Z,39.21
2018-08-24T10:31:11.373Z,38.86
2018-08-24T10:33:40.402Z,38.50
2018-08-24T10:36:09.347Z,38.48
2018-08-24T10:38:38.420Z,39.72
2018-08-24T10:41:07.375Z,38.77
2018-08-24T10:43:36.560Z,39.79
2018-08-24T10:46:05.541Z,39.49
2018-08-24T10:48:34.576Z,39.96
2018-08-24T10:51:03.816Z,39.77
2018-08-24T10:53:32.841Z,38.83
2018-08-24T10:56:02.162Z,39.74
2018-08-24T10:58:31.410Z,39.93
2018-08-24T11:01:00.378Z,39.49
2018-08-24T11:03:29.356Z,40.18
2018-08-24T11:05:58.267Z,39.77
2018-08-24T11:08:27.343Z,39.38
2018-08-24T11:10:56.424Z,39.18
2018-08-24T11:13:25.418Z,39.89
2018-08-24T11:15:54.311Z,39.68
2018-08-24T11:18:23.217Z,40.00
2018-08-24T11:20:52.182Z,39.73
2018-08-24T11:23:21.200Z,39.20
2018-08-24T11:25:50.304Z,39.37
2018-08-24T11:28:19.272Z,39.89
2018-08-24T11:30:48.224Z,40.12
2018-08-24T11:33:17.359Z,38.72
2018-08-24T11:35:46.350Z,39.55
2018-08-24T11:38:15.482Z,38.71
2018-08-24T11:40:44.415Z,38.44
2018-08-24T11:43:13.455Z,39.09
2018-08-24T11:45:42.487Z,39.02
2018-08-24T11:48:11.511Z,38.94
2018-08-24T11:50:40.523Z,39.77
2018-08-24T11:53:09.435Z,39.74
2018-08-24T11:55:38.562Z,39.03
2018-08-24T11:58:07.631Z,39.86
2018-08-24T12:00:36.755Z,40.10
2018-08-24T12:03:05.751Z,39.31
2018-08-24T12:05:34.852Z,40.01
2018-08-24T12:08:04.122Z,39.96
2018-08-24T12:10:33.044Z,39.70
2018-08-24T12:13:02.079Z,38.94
2018-08-24T12:15:31.096Z,39.30
2018-08-24T12:18:00.325Z,39.50
2018-08-24T12:20:29.287Z,39.14
2018-08-24T12:22:58.275Z,38.75
2018-08-24T12:25:27.195Z,37.98
2018-08-24T12:27:56.211Z,38.29
2018-08-24T12:30:25.233Z,38.62
2018-08-24T12:32:54.271Z,36.81
2018-08-24T12:35:23.247Z,37.65
2018-08-24T12:37:52.344Z,37.46
2018-08-24T12:40:21.520Z,37.74
2018-08-24T12:42:50.576Z,38.07
2018-08-24T12:45:19.707Z,38.00
2018-08-24T12:47:48.744Z,37.78
2018-08-24T12:50:17.820Z,37.11
2018-08-24T12:52:46.866Z,36.55
2018-08-24T12:55:15.771Z,38.17
2018-08-24T12:57:44.687Z,37.29
2018-08-24T13:00:13.595Z,36.99
2018-08-24T13:02:42.550Z,37.45
2018-08-24T13:05:11.435Z,36.50
2018-08-24T13:07:40.458Z,38.07
2018-08-24T13:10:09.496Z,37.75
2018-08-24T13:12:38.403Z,40.12
2018-08-24T13:15:07.342Z,39.13
2018-08-24T13:17:36.346Z,39.17
2018-08-24T13:20:05.386Z,38.76
2018-08-24T13:22:34.409Z,37.97
2018-08-24T13:25:03.387Z,38.79
2018-08-24T13:27:32.420Z,38.48
2018-08-24T13:30:01.484Z,38.58
2018-08-24T13:32:30.509Z,38.73
2018-08-24T13:34:59.605Z,37.79
2018-08-24T13:37:28.600Z,38.79
2018-08-24T13:39:57.567Z,38.17
2018-08-24T13:42:26.516Z,38.99
2018-08-24T13:44:55.535Z,38.04
2018-08-24T13:47:24.773Z,39.18
2018-08-24T13:49:53.808Z,38.30
2018-08-24T13:52:22.808Z,38.52
2018-08-24T13:54:51.882Z,38.28
2018-08-24T13:57:20.991Z,38.34
2018-08-24T13:59:49.937Z,38.81
2018-08-24T14:02:18.927Z,39.01
2018-08-24T14:04:47.872Z,39.22
2018-08-24T14:07:16.847Z,38.97
2018-08-24T14:09:45.795Z,39.65
2018-08-24T14:12:14.759Z,38.94
2018-08-24T14:14:43.763Z,39.26
2018-08-24T14:17:12.708Z,39.88
2018-08-24T14:19:41.738Z,38.92
2018-08-24T14:22:10.884Z,39.44
2018-08-24T14:24:39.846Z,40.02
2018-08-24T14:27:08.927Z,40.29
2018-08-24T14:29:38.424Z,39.75
2018-08-24T14:32:07.579Z,40.35
2018-08-24T14:34:36.547Z,40.17
2018-08-24T14:37:05.583Z,39.52
2018-08-24T14:39:34.569Z,39.39
2018-08-24T14:42:03.556Z,39.64
2018-08-24T14:44:32.522Z,39.84
2018-08-24T14:47:01.506Z,39.35
2018-08-24T14:49:30.457Z,40.07
2018-08-24T14:51:59.485Z,39.33
2018-08-24T14:54:28.500Z,39.94
2018-08-24T14:56:57.476Z,40.46
2018-08-24T14:59:26.479Z,39.40
2018-08-24T15:01:55.599Z,39.46
2018-08-24T15:04:24.976Z,40.05
2018-08-24T15:06:54.132Z,39.06
2018-08-24T15:09:23.204Z,40.35
2018-08-24T15:11:52.260Z,39.11
2018-08-24T15:14:21.322Z,39.64
2018-08-24T15:16:50.398Z,39.84
2018-08-24T15:19:19.447Z,39.42
2018-08-24T15:21:48.514Z,40.24
2018-08-24T15:24:17.597Z,41.12
2018-08-24T15:26:46.544Z,39.97
2018-08-24T15:29:15.563Z,40.49
2018-08-24T15:31:44.556Z,39.67
2018-08-24T15:34:13.479Z,39.85
2018-08-24T15:36:42.428Z,40.07
2018-08-24T15:39:13.171Z,40.28
2018-08-24T15:41:42.911Z,41.01
2018-08-24T15:44:11.917Z,40.17
2018-08-24T15:46:40.932Z,41.16
2018-08-24T15:49:09.996Z,40.25
2018-08-24T15:51:39.325Z,40.05
2018-08-24T15:54:08.281Z,40.13
2018-08-24T15:56:37.266Z,40.57
2018-08-24T15:59:06.191Z,40.73
2018-08-24T16:01:35.129Z,40.37
2018-08-24T16:04:04.140Z,41.21
2018-08-24T16:06:33.189Z,41.40
2018-08-24T16:09:02.279Z,40.53
2018-08-24T16:11:31.325Z,41.53
2018-08-24T16:14:00.311Z,40.91
2018-08-24T16:16:29.388Z,41.84
2018-08-24T16:18:58.326Z,41.13
2018-08-24T16:21:27.471Z,41.98
2018-08-24T16:23:56.422Z,42.02
2018-08-24T16:26:26.231Z,42.23
2018-08-24T16:28:55.659Z,42.30
2018-08-24T16:31:24.657Z,42.42
2018-08-24T16:33:54.064Z,42.55
2018-08-24T16:36:23.079Z,41.86
2018-08-24T16:38:52.171Z,42.41
2018-08-24T16:41:21.244Z,42.74
2018-08-24T16:43:50.287Z,42.83
2018-08-24T16:46:19.251Z,43.33
2018-08-24T16:48:48.481Z,43.19
2018-08-24T16:51:17.559Z,42.81
2018-08-24T16:53:46.647Z,43.14
2018-08-24T16:56:15.616Z,42.25
2018-08-24T16:58:44.519Z,42.57
2018-08-24T17:01:13.540Z,43.27
2018-08-24T17:03:42.472Z,43.67
2018-08-24T17:06:11.363Z,43.60
2018-08-24T17:08:40.253Z,43.66
2018-08-24T17:11:09.200Z,43.32
2018-08-24T17:13:38.112Z,43.04
2018-08-24T17:16:07.089Z,43.75
2018-08-24T17:18:36.221Z,44.33
2018-08-24T17:21:05.215Z,44.31
2018-08-24T17:23:34.153Z,43.32
2018-08-24T17:26:03.206Z,44.33
2018-08-24T17:28:32.335Z,44.03
2018-08-24T17:31:01.404Z,43.30
2018-08-24T17:33:30.398Z,43.69
2018-08-24T17:35:59.454Z,43.38
2018-08-24T17:38:28.411Z,44.10
2018-08-24T17:40:57.307Z,43.31
2018-08-24T17:43:26.225Z,43.67
2018-08-24T17:45:55.203Z,44.29
2018-08-24T17:48:24.362Z,44.28
2018-08-24T17:50:53.417Z,44.50
2018-08-24T17:53:22.487Z,45.15
2018-08-24T17:55:51.604Z,45.07
2018-08-24T17:58:20.607Z,44.81
2018-08-24T18:00:49.568Z,45.37
2018-08-24T18:03:18.511Z,44.81
2018-08-24T18:05:47.476Z,45.30
2018-08-24T18:08:16.385Z,45.06
2018-08-24T18:10:45.464Z,44.75
2018-08-24T18:13:14.504Z,45.48
2018-08-24T18:15:43.522Z,44.87
2018-08-24T18:18:12.480Z,45.86
2018-08-24T18:20:41.402Z,45.97
2018-08-24T18:23:10.488Z,45.14
2018-08-24T18:25:39.514Z,45.09
2018-08-24T18:28:08.512Z,45.19
2018-08-24T18:30:37.508Z,45.42
2018-08-24T18:33:06.623Z,45.24
2018-08-24T18:35:35.613Z,45.65
2018-08-24T18:38:04.571Z,45.85
2018-08-24T18:40:33.562Z,44.75
2018-08-24T18:43:02.511Z,44.54
2018-08-24T18:45:31.553Z,45.41
2018-08-24T18:48:00.636Z,45.77
2018-08-24T18:50:29.615Z,45.37
2018-08-24T18:52:58.704Z,45.19
2018-08-24T18:55:27.620Z,46.52
2018-08-24T18:57:56.735Z,45.52
2018-08-24T19:00:26.260Z,46.45
2018-08-24T19:02:55.287Z,46.33
2018-08-24T19:05:24.256Z,45.83
2018-08-24T19:07:57.272Z,47.01
2018-08-24T19:10:26.194Z,47.08
2018-08-24T19:12:55.038Z,46.30
2018-08-24T19:15:23.872Z,46.75
2018-08-24T19:17:57.682Z,46.45
2018-08-24T19:20:31.848Z,46.33
2018-08-24T19:23:00.690Z,47.42
2018-08-24T19:25:29.596Z,46.28
2018-08-24T19:28:03.526Z,46.01
2018-08-24T19:30:33.638Z,45.59
2018-08-24T19:33:02.793Z,45.68
2018-08-24T19:35:32.142Z,45.27
2018-08-24T19:38:01.000Z,43.16
2018-08-24T19:40:34.927Z,43.39
2018-08-24T19:43:03.795Z,44.27
2018-08-24T19:45:32.677Z,44.01
2018-08-24T19:48:06.738Z,44.10
2018-08-24T19:50:35.893Z,45.28
2018-08-24T19:53:04.896Z,45.31
2018-08-24T19:55:33.774Z,44.96
2018-08-24T19:58:07.634Z,45.12
2018-08-24T20:00:36.716Z,46.47
2018-08-24T20:03:05.589Z,45.60
2018-08-24T20:05:34.463Z,46.36
2018-08-24T20:08:08.695Z,47.01
2018-08-24T20:10:37.555Z,47.29
2018-08-24T20:13:06.538Z,46.99
2018-08-24T20:15:40.693Z,46.77
2018-08-24T20:18:09.511Z,47.29
2018-08-24T20:20:38.426Z,46.51
2018-08-24T20:23:08.246Z,46.89
2018-08-24T20:25:37.214Z,46.28
2018-08-24T20:28:06.196Z,45.92
2018-08-24T20:30:35.151Z,45.02
2018-08-24T20:33:04.002Z,45.42
2018-08-24T20:35:32.868Z,45.64
2018-08-24T20:38:01.772Z,46.51
2018-08-24T20:40:30.736Z,46.51
2018-08-24T20:42:59.587Z,45.03
2018-08-24T20:45:28.427Z,45.05
2018-08-24T20:47:57.446Z,45.51
2018-08-24T20:50:26.403Z,44.78
2018-08-24T20:52:55.474Z,45.85
2018-08-24T20:55:25.657Z,45.54
2018-08-24T20:57:58.385Z,44.75
2018-08-24T21:00:27.292Z,44.56
2018-08-24T21:02:56.159Z,44.60
2018-08-24T21:05:25.280Z,45.49
2018-08-24T21:07:54.177Z,45.22
2018-08-24T21:10:23.068Z,45.40
2018-08-24T21:12:52.026Z,46.11
2018-08-24T21:15:20.835Z,46.87
2018-08-24T21:17:49.779Z,46.93
2018-08-24T21:20:18.833Z,46.95
2018-08-24T21:22:47.718Z,46.69
2018-08-24T21:25:16.559Z,45.68
2018-08-24T21:27:45.389Z,46.60
2018-08-24T21:30:14.432Z,46.36
2018-08-24T21:32:43.333Z,46.51
2018-08-24T21:35:12.231Z,46.64
2018-08-24T21:37:41.118Z,46.16
2018-08-24T21:40:10.035Z,45.57
2018-08-24T21:42:38.935Z,45.69
2018-08-24T21:45:07.838Z,45.57
2018-08-24T21:47:36.787Z,45.58
2018-08-24T21:50:05.931Z,45.89
2018-08-24T21:52:34.852Z,45.87
2018-08-24T21:55:03.942Z,45.97
2018-08-24T21:57:33.010Z,46.42
2018-08-24T22:00:01.959Z,47.46
2018-08-24T22:02:30.834Z,46.94
2018-08-24T22:04:59.857Z,46.79
2018-08-24T22:07:28.835Z,47.95
2018-08-24T22:09:59.384Z,47.87
2018-08-24T22:12:28.336Z,47.77
2018-08-24T22:14:57.354Z,48.61
2018-08-24T22:17:26.243Z,47.90
2018-08-24T22:19:55.219Z,48.79
2018-08-24T22:22:24.203Z,48.86
2018-08-24T22:24:53.272Z,49.34
2018-08-24T22:27:22.183Z,48.54
2018-08-24T22:29:51.134Z,49.52
2018-08-24T22:32:20.086Z,50.29
2018-08-24T22:34:48.928Z,49.09
2018-08-24T22:37:18.078Z,49.43
2018-08-24T22:39:47.003Z,49.63
2018-08-24T22:42:22.187Z,49.87
2018-08-24T22:44:51.083Z,50.36
2018-08-24T22:47:19.901Z,49.85
2018-08-24T22:49:48.897Z,50.65
2018-08-24T22:52:17.854Z,49.86
2018-08-24T22:54:46.835Z,49.67
2018-08-24T22:57:15.873Z,50.48
2018-08-24T22:59:44.879Z,50.58
2018-08-24T23:02:13.846Z,49.78
2018-08-24T23:04:42.756Z,50.41
2018-08-24T23:07:11.659Z,50.84
2018-08-24T23:09:41.161Z,50.18
2018-08-24T23:12:09.978Z,50.82
2018-08-24T23:14:40.056Z,50.02
2018-08-24T23:17:09.930Z,51.23
2018-08-24T23:19:39.399Z,50.59
2018-08-24T23:22:08.406Z,51.58
2018-08-24T23:24:37.542Z,50.16
2018-08-24T23:27:06.817Z,50.06
2018-08-24T23:29:35.722Z,51.01
2018-08-24T23:32:04.781Z,50.94
2018-08-24T23:34:33.919Z,50.49
2018-08-24T23:37:02.765Z,50.41
2018-08-24T23:39:31.894Z,50.80
2018-08-24T23:42:00.814Z,51.49
2018-08-24T23:44:29.717Z,51.74
2018-08-24T23:46:58.582Z,52.09
2018-08-24T23:49:27.586Z,52.37
2018-08-24T23:51:56.475Z,50.72
2018-08-24T23:54:26.139Z,50.89
2018-08-24T23:57:01.528Z,51.65
2018-08-24T23:59:30.563Z,52.45
